Time;durP1;ratioP1;P1;durP2;ratioP2;P2;SDS_P1;SDS_P2;PMS_P1;PMS_P2;Temp;Humidity;BMP_temperature;BMP_pressure;BME280_temperature;BME280_humidity;BME280_pressure;Samples;Min_cycle;Max_cycle;Signal;HPM_P1;HPM_P2
2021/12/06 00:01:59;;;;;;;30.23;19.80;;;;;;;0.69;100.00;101049.42;1662032;85;21086;-82
2021/12/06 00:04:28;;;;;;;;;;;;;;;0.77;100.00;101048.35;1644299;85;21074;-83
2021/12/06 00:07:00;;;;;;;30.32;19.48;;;;;;;0.89;100.00;101047.17;1643947;87;20189;-83
2021/12/06 00:09:28;;;;;;;33.67;20.32;;;;;;;0.92;100.00;101039.38;1647156;86;21077;-82
2021/12/06 00:11:59;;;;;;;32.50;19.82;;;;;;;0.96;100.00;101043.15;1615738;87;21124;-82
2021/12/06 00:14:35;;;;;;;31.82;20.97;;;;;;;0.97;100.00;101038.42;1649691;85;24265;-82
2021/12/06 00:17:07;;;;;;;28.92;19.67;;;;;;;0.97;100.00;101039.25;1649094;86;21062;-82
2021/12/06 00:19:35;;;;;;;32.35;20.88;;;;;;;1.01;100.00;101038.72;1615094;88;21129;-81
2021/12/06 00:22:06;;;;;;;29.98;20.15;;;;;;;1.05;100.00;101041.61;1596630;88;21108;-82
2021/12/06 00:24:33;;;;;;;30.08;19.32;;;;;;;1.09;100.00;101042.77;1596482;88;21863;-82
2021/12/06 00:27:00;;;;;;;30.12;20.82;;;;;;;1.17;100.00;101038.68;1622690;88;21575;-82
2021/12/06 00:29:28;;;;;;;29.05;20.37;;;;;;;1.26;100.00;101045.28;1623182;88;21665;-82
2021/12/06 00:31:55;;;;;;;29.30;20.00;;;;;;;1.29;100.00;101039.22;1622775;88;21037;-83
2021/12/06 00:34:24;;;;;;;28.77;19.92;;;;;;;1.26;100.00;101043.55;1623260;88;21065;-82
2021/12/06 00:36:54;;;;;;;27.90;19.10;;;;;;;1.26;100.00;101043.55;1622844;88;21158;-82
2021/12/06 00:39:23;;;;;;;26.07;18.40;;;;;;;1.25;100.00;101039.30;1618997;88;21211;-82
2021/12/06 00:41:50;;;;;;;26.15;19.32;;;;;;;1.30;100.00;101033.20;1629325;87;21053;-83
2021/12/06 00:44:17;;;;;;;25.65;18.75;;;;;;;1.35;100.00;101034.75;1591044;88;21093;-83
2021/12/06 00:46:44;;;;;;;25.92;18.87;;;;;;;1.38;100.00;101036.38;1604212;87;22086;-83
2021/12/06 00:49:11;;;;;;;26.25;18.77;;;;;;;1.38;100.00;101029.97;1617337;87;21197;-83
2021/12/06 00:51:38;;;;;;;27.10;19.10;;;;;;;1.37;100.00;101033.41;1617415;87;21517;-83
2021/12/06 00:54:06;;;;;;;27.52;19.15;;;;;;;1.35;100.00;101027.48;1617599;87;21089;-84
2021/12/06 00:56:34;;;;;;;27.22;19.12;;;;;;;1.31;100.00;101024.17;1617578;87;21631;-83
2021/12/06 00:59:00;;;;;;;29.92;19.62;;;;;;;1.31;100.00;101031.04;1617743;87;21607;-83
2021/12/06 01:01:28;;;;;;;27.87;20.23;;;;;;;1.30;100.00;101030.19;1617404;87;21882;-83
2021/12/06 01:03:55;;;;;;;29.45;20.17;;;;;;;1.31;100.00;101029.76;1634386;86;21043;-82
2021/12/06 01:06:22;;;;;;;31.55;21.20;;;;;;;1.31;100.00;101031.04;1660801;86;21018;-83
2021/12/06 01:08:49;;;;;;;33.90;22.65;;;;;;;1.32;100.00;101037.86;1660749;86;21523;-83
2021/12/06 01:11:17;;;;;;;31.93;22.15;;;;;;;1.28;100.00;101039.67;1660767;86;21614;-81
2021/12/06 01:13:44;;;;;;;34.27;23.80;;;;;;;1.20;100.00;101026.23;1660653;86;22035;-82
2021/12/06 01:16:11;;;;;;;34.45;23.60;;;;;;;1.13;100.00;101029.41;1660868;85;21832;-82
2021/12/06 01:18:39;;;;;;;53.25;35.33;;;;;;;1.09;100.00;101030.36;1661096;86;21089;-83
2021/12/06 01:23:43;;;;;;;52.45;33.67;;;;;;;1.06;100.00;101031.75;1660703;86;21702;-81
2021/12/06 01:26:33;;;;;;;44.40;28.90;;;;;;;1.05;100.00;101024.94;1627409;86;21126;-81
2021/12/06 01:29:05;;;;;;;38.17;25.55;;;;;;;1.04;100.00;101025.36;1628929;86;21548;-81
2021/12/06 01:31:34;;;;;;;39.25;24.95;;;;;;;1.05;100.00;101022.38;1655854;85;21101;-81
2021/12/06 01:41:38;;;;;;;39.00;25.30;;;;;;;1.11;100.00;101015.78;1660709;86;21094;-84
2021/12/06 01:44:21;;;;;;;;;;;;;;;;;;;;;
2021/12/06 01:47:02;;;;;;;43.92;23.35;;;;;;;1.04;100.00;101015.11;1628849;86;20326;-83
2021/12/06 01:49:34;;;;;;;43.05;28.50;;;;;;;1.03;100.00;101008.33;1660361;86;21081;-83
2021/12/06 01:52:07;;;;;;;39.18;27.42;;;;;;;1.05;100.00;101012.12;1611063;86;21180;-83
2021/12/06 01:54:34;;;;;;;41.08;28.10;;;;;;;1.07;100.00;101009.90;1660695;86;21030;-82
2021/12/06 01:57:02;;;;;;;38.98;25.77;;;;;;;1.08;100.00;101006.91;1660555;86;20994;-82
2021/12/06 01:59:30;;;;;;;39.25;26.57;;;;;;;1.15;100.00;101008.83;1660583;86;21109;-81
2021/12/06 02:01:57;;;;;;;40.52;26.62;;;;;;;1.21;100.00;101016.34;1660742;86;21042;-82
2021/12/06 02:04:26;;;;;;;40.40;26.42;;;;;;;1.30;100.00;101016.53;1629579;86;22136;-83
2021/12/06 02:06:53;;;;;;;41.58;25.52;;;;;;;1.39;100.00;101011.13;1649617;86;21095;-83
2021/12/06 02:09:25;;;;;;;37.98;25.23;;;;;;;1.49;100.00;101016.34;1653004;86;21532;-84
2021/12/06 02:11:52;;;;;;;40.10;25.55;;;;;;;1.57;100.00;101023.37;1649817;86;21036;-82
2021/12/06 02:14:30;;;;;;;49.55;27.13;;;;;;;1.60;100.00;101018.61;1653133;86;21070;-83
2021/12/06 02:17:12;;;;;;;35.52;24.27;;;;;;;1.65;100.00;101022.29;1648998;86;21726;-81
2021/12/06 02:19:40;;;;;;;37.80;24.90;;;;;;;1.68;100.00;101020.92;1649654;86;21067;-83
2021/12/06 02:22:18;;;;;;;39.45;25.05;;;;;;;1.70;100.00;101016.58;1628909;86;21074;-83
2021/12/06 02:24:45;;;;;;;36.17;23.90;;;;;;;1.69;100.00;101023.43;1629816;86;21069;-84
2021/12/06 02:27:15;;;;;;;36.50;24.45;;;;;;;1.72;100.00;101023.34;1653075;86;21110;-83
2021/12/06 02:29:46;;;;;;;40.10;24.45;;;;;;;1.74;100.00;101025.85;1653317;86;21176;-83
2021/12/06 02:32:15;;;;;;;40.38;24.55;;;;;;;1.78;100.00;101030.02;1653565;86;21019;-82
2021/12/06 02:34:47;;;;;;;33.58;22.22;;;;;;;1.82;100.00;101039.29;1653169;86;21105;-83
2021/12/06 02:37:19;;;;;;;39.00;24.82;;;;;;;1.87;100.00;101040.00;1647086;85;21075;-83
2021/12/06 02:39:46;;;;;;;39.98;24.67;;;;;;;1.92;100.00;101046.70;1653048;86;21165;-83
2021/12/06 02:42:15;;;;;;;42.65;28.07;;;;;;;1.95;100.00;101046.16;1653750;86;21175;-83
2021/12/06 02:44:46;;;;;;;42.10;27.40;;;;;;;1.98;100.00;101050.36;1628531;86;21067;-83
2021/12/06 02:47:16;;;;;;;40.10;26.65;;;;;;;1.92;100.00;101054.41;1653327;86;21078;-83
2021/12/06 02:49:45;;;;;;;40.50;26.73;;;;;;;1.80;100.00;101053.93;1653489;86;21071;-83
2021/12/06 02:52:13;;;;;;;45.88;24.75;;;;;;;1.67;100.00;101055.18;1653044;86;21051;-84
2021/12/06 02:54:42;;;;;;;36.75;23.32;;;;;;;1.57;100.00;101052.06;1653269;86;21924;-83
2021/12/06 02:59:46;;;;;;;42.05;24.25;;;;;;;1.62;100.00;101050.19;1652735;86;21129;-84
2021/12/06 03:02:18;;;;;;;40.05;24.63;;;;;;;1.67;100.00;101056.47;1653680;86;21087;-84
2021/12/06 03:04:46;;;;;;;38.73;25.52;;;;;;;1.70;100.00;101051.25;1608969;86;21129;-84
2021/12/06 03:07:15;;;;;;;38.40;25.43;;;;;;;1.69;100.00;101049.56;1660607;86;21827;-84
2021/12/06 03:09:43;;;;;;;37.98;25.43;;;;;;;1.61;100.00;101045.11;1656635;86;21097;-84
2021/12/06 03:12:17;;;;;;;37.28;24.27;;;;;;;1.51;100.00;101049.23;1660643;86;21026;-83
2021/12/06 03:14:49;;;;;;;37.73;23.98;;;;;;;1.41;100.00;101045.25;1657154;85;21054;-83
2021/12/06 03:17:20;;;;;;;35.70;24.32;;;;;;;1.33;100.00;101038.22;1627055;86;21062;-83
2021/12/06 03:19:49;;;;;;;41.95;25.92;;;;;;;1.30;100.00;101041.73;1660935;86;22653;-83
2021/12/06 03:22:17;;;;;;;41.15;26.35;;;;;;;1.26;100.00;101044.83;1660683;86;21077;-83
2021/12/06 03:24:46;;;;;;;36.93;25.23;;;;;;;1.17;100.00;101038.68;1632182;86;21022;-82
2021/12/06 03:27:16;;;;;;;37.42;24.90;;;;;;;1.06;100.00;101033.86;1660568;86;21023;-83
2021/12/06 03:29:43;;;;;;;43.30;25.77;;;;;;;0.93;100.00;101038.50;1656204;86;21121;-83
2021/12/06 03:32:12;;;;;;;40.20;24.60;;;;;;;0.84;100.00;101041.31;1660364;86;21137;-84
2021/12/06 03:34:40;;;;;;;36.08;23.85;;;;;;;0.82;100.00;101039.68;1632475;86;21038;-83
2021/12/06 03:37:09;;;;;;;36.88;24.32;;;;;;;0.84;100.00;101039.20;1660880;85;21082;-83
2021/12/06 03:39:46;;;;;;;38.33;24.80;;;;;;;0.85;100.00;101046.84;1660801;85;21662;-84
2021/12/06 03:42:19;;;;;;;39.88;25.15;;;;;;;0.83;100.00;101045.21;1643470;85;21148;-83
2021/12/06 03:44:46;;;;;;;;;;;;;;;0.83;100.00;101041.36;1650003;87;21162;-82
2021/12/06 03:47:22;;;;;;;36.25;23.12;;;;;;;0.80;100.00;101044.03;1646909;86;20219;-83
2021/12/06 03:49:49;;;;;;;35.48;21.85;;;;;;;0.80;100.00;101043.58;1647199;87;21057;-84
2021/12/06 03:52:16;;;;;;;31.15;20.62;;;;;;;0.84;100.00;101041.31;1647084;85;21076;-84
2021/12/06 03:54:46;;;;;;;31.52;21.02;;;;;;;0.97;100.00;101030.27;1647002;85;21095;-83
2021/12/06 03:57:16;;;;;;;34.25;21.68;;;;;;;1.06;100.00;101036.42;1652622;86;21176;-83
2021/12/06 03:59:43;;;;;;;33.70;21.65;;;;;;;1.15;100.00;101037.05;1632073;86;21536;-83
2021/12/06 04:02:11;;;;;;;31.05;20.50;;;;;;;1.18;100.00;101037.80;1621258;86;21682;-84
2021/12/06 04:04:38;;;;;;;28.60;19.48;;;;;;;1.22;100.00;101043.68;1649104;85;21053;-82
2021/12/06 04:07:08;;;;;;;34.78;20.90;;;;;;;1.28;100.00;101046.09;1660559;86;21046;-82
2021/12/06 04:09:37;;;;;;;30.53;20.37;;;;;;;1.32;100.00;101041.25;1631650;86;21566;-83
2021/12/06 04:12:07;;;;;;;27.02;18.75;;;;;;;1.33;100.00;101039.08;1660803;86;21102;-82
2021/12/06 04:14:37;;;;;;;28.40;18.42;;;;;;;1.38;100.00;101046.64;1661129;86;23041;-82
2021/12/06 04:17:05;;;;;;;30.97;19.60;;;;;;;1.42;100.00;101045.66;1660674;86;21157;-82
2021/12/06 04:19:32;;;;;;;28.35;18.40;;;;;;;1.43;100.00;101050.36;1660690;85;21517;-84
2021/12/06 04:22:00;;;;;;;34.85;22.22;;;;;;;1.44;100.00;101052.88;1644440;85;22011;-84
2021/12/06 04:24:28;;;;;;;41.80;23.45;;;;;;;1.50;100.00;101045.44;1674835;84;21637;-86
2021/12/06 04:26:56;;;;;;;77.12;31.75;;;;;;;1.58;100.00;101047.33;1630002;85;21572;-80
2021/12/06 04:29:24;;;;;;;89.00;36.83;;;;;;;1.92;100.00;101043.71;1661120;85;21161;-80
2021/12/06 04:31:55;;;;;;;86.90;34.92;;;;;;;2.24;100.00;101043.53;1661016;85;21531;-80
2021/12/06 04:34:23;;;;;;;53.17;27.17;;;;;;;2.53;100.00;101043.83;1661164;86;21877;-79
2021/12/06 04:36:51;;;;;;;52.65;26.75;;;;;;;2.72;100.00;101037.59;1660900;86;21042;-79
2021/12/06 04:39:20;;;;;;;46.37;23.98;;;;;;;2.83;100.00;101047.06;1660982;86;21069;-80
2021/12/06 04:41:49;;;;;;;50.92;21.57;;;;;;;3.01;100.00;101047.27;1661254;86;21100;-80
2021/12/06 04:44:17;;;;;;;40.25;21.20;;;;;;;3.13;100.00;101051.98;1632352;86;21575;-84
2021/12/06 04:46:45;;;;;;;29.52;18.55;;;;;;;3.10;100.00;101047.39;1660582;85;21879;-85
2021/12/06 04:49:12;;;;;;;103.65;20.68;;;;;;;3.02;100.00;101050.23;1660889;86;21069;-87
2021/12/06 04:51:45;;;;;;;30.75;16.60;;;;;;;2.81;100.00;101048.84;1632404;86;21074;-84
2021/12/06 04:54:15;;;;;;;24.90;14.83;;;;;;;2.57;100.00;101040.25;1657683;86;21047;-85
2021/12/06 04:56:48;;;;;;;31.90;17.70;;;;;;;2.57;100.00;101040.25;1655469;86;21102;-83
2021/12/06 04:59:23;;;;;;;33.13;16.17;;;;;;;2.39;100.00;101038.33;1648600;86;21200;-84
2021/12/06 05:01:54;;;;;;;25.23;16.42;;;;;;;2.17;100.00;101037.31;1632477;86;21081;-84
2021/12/06 05:04:29;;;;;;;23.65;14.83;;;;;;;1.96;100.00;101029.04;1660435;85;21057;-84
2021/12/06 05:07:16;;;;;;;23.70;15.68;;;;;;;1.77;100.00;101019.34;1651873;86;21082;-83
2021/12/06 05:09:45;;;;;;;24.92;14.73;;;;;;;1.61;100.00;101020.72;1655389;86;21118;-84
2021/12/06 05:12:16;;;;;;;28.02;15.58;;;;;;;1.47;100.00;101011.73;1632770;86;21129;-85
2021/12/06 05:14:43;;;;;;;25.13;15.87;;;;;;;1.40;100.00;101012.80;1633145;86;21019;-84
2021/12/06 05:17:11;;;;;;;24.43;14.53;;;;;;;1.31;100.00;101024.17;1632981;86;21066;-82
2021/12/06 05:19:38;;;;;;;26.25;14.65;;;;;;;1.25;100.00;101044.42;1653450;86;21593;-82
2021/12/06 05:22:07;;;;;;;21.42;14.90;;;;;;;1.22;100.00;101061.21;1657591;86;21612;-80
2021/12/06 05:24:36;;;;;;;23.22;14.43;;;;;;;1.21;100.00;101058.67;1657685;86;21976;-80
2021/12/06 05:27:05;;;;;;;19.40;14.53;;;;;;;1.19;100.00;101062.57;1633023;86;21125;-84
2021/12/06 05:29:35;;;;;;;21.15;14.78;;;;;;;1.17;100.00;101077.62;1657617;86;21093;-84
2021/12/06 05:32:03;;;;;;;27.55;14.85;;;;;;;1.18;100.00;101086.55;1657168;85;21544;-82
2021/12/06 05:34:43;;;;;;;25.95;14.55;;;;;;;1.19;100.00;101076.68;1657751;86;21129;-83
2021/12/06 05:37:10;;;;;;;22.10;14.00;;;;;;;1.21;100.00;101078.77;1657288;86;21176;-83
2021/12/06 05:39:38;;;;;;;27.13;14.30;;;;;;;1.25;100.00;101078.23;1657313;85;21051;-83
2021/12/06 05:42:12;;;;;;;29.15;14.53;;;;;;;1.29;100.00;101082.38;1657396;86;21071;-83
2021/12/06 05:44:41;;;;;;;20.40;13.45;;;;;;;1.32;100.00;101080.20;1651110;86;21559;-83
2021/12/06 05:47:09;;;;;;;19.57;13.48;;;;;;;1.33;100.00;101074.15;1657664;86;21095;-84
2021/12/06 05:49:37;;;;;;;20.92;14.68;;;;;;;1.30;100.00;101068.67;1657540;86;21165;-83
2021/12/06 05:52:05;;;;;;;22.80;16.17;;;;;;;1.30;100.00;101063.99;1657842;86;20999;-84
2021/12/06 05:54:33;;;;;;;25.82;15.35;;;;;;;1.29;100.00;101082.38;1657574;86;21047;-83
2021/12/06 05:57:02;;;;;;;21.75;14.65;;;;;;;1.31;100.00;101092.62;1657652;86;21109;-83
2021/12/06 05:59:29;;;;;;;27.22;15.00;;;;;;;1.37;100.00;101100.97;1657861;86;21125;-83
2021/12/06 06:01:58;;;;;;;20.15;14.70;;;;;;;1.41;100.00;101103.00;1657578;86;21027;-82
2021/12/06 06:04:26;;;;;;;22.48;15.32;;;;;;;1.47;100.00;101104.55;1657633;86;20967;-83
2021/12/06 06:06:53;;;;;;;25.55;16.37;;;;;;;1.48;100.00;101112.23;1657717;86;21058;-83
2021/12/06 06:09:21;;;;;;;23.42;15.55;;;;;;;1.49;100.00;101111.31;1657545;86;21536;-83
2021/12/06 06:11:48;;;;;;;22.42;15.35;;;;;;;1.52;100.00;101108.67;1632845;86;21043;-82
2021/12/06 06:14:16;;;;;;;22.67;14.70;;;;;;;1.54;100.00;101102.20;1657530;86;21290;-83
2021/12/06 06:16:52;;;;;;;20.27;14.65;;;;;;;1.55;100.00;101090.63;1657880;86;21125;-82
2021/12/06 06:19:22;;;;;;;19.87;13.78;;;;;;;1.58;100.00;101097.39;1653833;86;21114;-83
2021/12/06 06:21:50;;;;;;;;;;;;;;;1.58;100.00;101099.50;1660099;86;21042;-83
2021/12/06 06:24:17;;;;;;;19.52;14.13;;;;;;;1.58;100.00;101102.52;1657898;86;20683;-84
2021/12/06 06:26:44;;;;;;;20.37;14.63;;;;;;;1.56;100.00;101103.83;1632785;86;21078;-82
2021/12/06 06:29:13;;;;;;;22.77;15.95;;;;;;;1.53;100.00;101104.37;1657823;86;21066;-83
2021/12/06 06:31:40;;;;;;;25.82;17.35;;;;;;;1.53;100.00;101102.66;1657759;86;21034;-83
2021/12/06 06:34:07;;;;;;;25.77;17.20;;;;;;;1.52;100.00;101098.86;1633033;86;21070;-83
2021/12/06 06:36:35;;;;;;;25.85;17.48;;;;;;;1.50;100.00;101102.73;1657964;86;21074;-83
2021/12/06 06:39:05;;;;;;;23.32;16.45;;;;;;;1.47;100.00;101107.13;1658339;86;21141;-83
2021/12/06 06:41:32;;;;;;;28.17;19.27;;;;;;;1.45;100.00;101103.32;1588793;88;21101;-81
2021/12/06 06:44:00;;;;;;;28.35;18.07;;;;;;;1.45;100.00;101106.31;1615909;87;21062;-82
2021/12/06 06:46:28;;;;;;;29.05;19.48;;;;;;;1.48;100.00;101102.39;1657618;86;21117;-83
2021/12/06 06:48:56;;;;;;;27.85;17.75;;;;;;;1.52;100.00;101100.97;1589249;88;21090;-82
2021/12/06 06:51:27;;;;;;;26.87;18.57;;;;;;;1.53;100.00;101104.37;1616449;87;21168;-82
2021/12/06 06:53:54;;;;;;;27.13;17.35;;;;;;;1.51;100.00;101107.44;1616981;88;21153;-84
2021/12/06 06:56:23;;;;;;;25.97;17.17;;;;;;;1.49;100.00;101110.48;1616466;87;33624;-82
2021/12/06 06:58:50;;;;;;;24.47;16.65;;;;;;;1.45;100.00;101114.87;1616432;88;21128;-83
2021/12/06 07:01:20;;;;;;;26.65;17.37;;;;;;;1.43;100.00;101129.92;1616742;87;21603;-82
2021/12/06 07:03:50;;;;;;;24.02;16.12;;;;;;;1.45;100.00;101139.69;1616485;88;22034;-83
2021/12/06 07:06:16;;;;;;;20.10;14.00;;;;;;;1.48;100.00;101150.73;1624353;86;21086;-81
2021/12/06 07:08:43;;;;;;;21.02;15.23;;;;;;;1.52;100.00;101151.48;1653399;86;21856;-84
2021/12/06 07:11:10;;;;;;;22.87;15.88;;;;;;;1.53;100.00;101155.28;1650418;86;21334;-82
2021/12/06 07:13:39;;;;;;;21.37;15.72;;;;;;;1.56;100.00;101155.17;1673360;84;21101;-82
2021/12/06 07:16:07;;;;;;;26.95;16.95;;;;;;;1.58;100.00;101149.56;1665201;85;21823;-83
2021/12/06 07:18:37;;;;;;;24.40;16.48;;;;;;;1.60;100.00;101144.41;1665007;85;21547;-82
2021/12/06 07:21:05;;;;;;;22.75;16.12;;;;;;;1.61;100.00;101147.80;1664892;85;21058;-83
2021/12/06 07:23:38;;;;;;;23.95;15.93;;;;;;;1.60;100.00;101141.84;1665160;86;21022;-82
2021/12/06 07:26:02;;;;;;;25.68;16.32;;;;;;;1.64;100.00;101149.00;1660569;85;21575;-82
2021/12/06 07:28:29;;;;;;;23.47;16.20;;;;;;;1.70;100.00;101142.39;1664849;85;21652;-83
2021/12/06 07:30:58;;;;;;;28.77;17.07;;;;;;;1.75;100.00;101148.22;1636940;86;21102;-83
2021/12/06 07:33:26;;;;;;;25.62;17.12;;;;;;;1.79;100.00;101147.27;1637218;86;21050;-83
2021/12/06 07:35:53;;;;;;;29.55;18.05;;;;;;;1.82;100.00;101151.00;1636944;86;21114;-84
2021/12/06 07:38:20;;;;;;;28.12;18.15;;;;;;;1.82;100.00;101142.02;1636954;86;22031;-84
2021/12/06 07:40:50;;;;;;;27.95;18.75;;;;;;;1.82;100.00;101148.44;1637065;86;21190;-83
2021/12/06 07:43:19;;;;;;;32.00;19.40;;;;;;;1.83;100.00;101149.30;1636838;86;21126;-82
2021/12/06 07:45:46;;;;;;;30.25;19.45;;;;;;;1.85;100.00;101146.21;1606878;87;21094;-84
2021/12/06 07:48:14;;;;;;;32.73;19.90;;;;;;;1.88;100.00;101144.39;1637127;86;21094;-83
2021/12/06 07:50:42;;;;;;;36.80;21.35;;;;;;;1.89;100.00;101142.68;1607765;87;21611;-82
2021/12/06 07:53:10;;;;;;;33.40;21.87;;;;;;;1.88;100.00;101144.85;1637087;86;21859;-82
2021/12/06 07:55:37;;;;;;;35.85;22.20;;;;;;;1.88;100.00;101141.83;1637296;86;21606;-82
2021/12/06 07:58:09;;;;;;;28.30;19.32;;;;;;;1.89;100.00;101138.37;1637077;86;21606;-82
2021/12/06 08:00:43;;;;;;;35.92;20.70;;;;;;;1.89;100.00;101143.51;1637066;86;21133;-81
2021/12/06 08:03:12;;;;;;;31.75;20.32;;;;;;;1.92;100.00;101141.74;1634275;86;21678;-83
2021/12/06 08:05:43;;;;;;;29.12;17.52;;;;;;;1.97;100.00;101142.43;1608551;86;21193;-83
2021/12/06 08:08:16;;;;;;;33.18;18.95;;;;;;;2.07;100.00;101140.44;1640068;87;21116;-82
2021/12/06 08:10:47;;;;;;;28.47;19.30;;;;;;;2.14;100.00;101141.47;1640495;86;21634;-81
2021/12/06 08:13:19;;;;;;;31.52;19.20;;;;;;;2.16;100.00;101135.02;1640012;86;21548;-82
2021/12/06 08:15:48;;;;;;;28.07;18.60;;;;;;;2.17;100.00;101131.53;1640552;87;21515;-83
2021/12/06 08:18:16;;;;;;;26.35;18.40;;;;;;;2.18;100.00;101131.51;1640253;87;22241;-84
2021/12/06 08:20:43;;;;;;;25.97;18.57;;;;;;;2.23;100.00;101131.79;1640432;86;21033;-84
2021/12/06 08:23:11;;;;;;;25.48;17.60;;;;;;;2.23;100.00;101131.36;1640061;86;21037;-83
2021/12/06 08:25:40;;;;;;;27.42;18.00;;;;;;;2.29;100.00;101125.16;1640065;87;21610;-83
2021/12/06 08:28:07;;;;;;;28.52;18.75;;;;;;;2.32;100.00;101121.22;1652140;85;21114;-83
2021/12/06 08:30:34;;;;;;;28.98;19.60;;;;;;;2.37;100.00;101109.05;1663714;86;21806;-83
2021/12/06 08:33:04;;;;;;;31.12;19.17;;;;;;;2.36;100.00;101105.65;1643157;86;21085;-82
2021/12/06 08:35:56;;;;;;;28.87;18.05;;;;;;;2.35;100.00;101101.86;1658611;85;21084;-84
2021/12/06 08:38:28;;;;;;;29.55;18.00;;;;;;;2.34;100.00;101096.31;1647355;85;21057;-84
2021/12/06 08:40:58;;;;;;;25.17;18.05;;;;;;;2.35;100.00;101092.40;1625963;85;21110;-82
2021/12/06 08:43:26;;;;;;;27.93;19.30;;;;;;;2.35;100.00;101090.29;1638448;86;21179;-84
2021/12/06 08:46:01;;;;;;;26.55;18.25;;;;;;;2.39;100.00;101090.56;1670548;84;21674;-84
2021/12/06 08:48:32;;;;;;;24.67;17.87;;;;;;;2.42;100.00;101088.33;1615786;86;21571;-83
2021/12/06 08:51:04;;;;;;;27.67;18.42;;;;;;;2.37;100.00;101089.77;1652297;84;21986;-83
2021/12/06 08:53:33;;;;;;;27.00;19.62;;;;;;;2.37;100.00;101089.77;1639659;87;21011;-83
2021/12/06 08:56:02;;;;;;;24.55;17.42;;;;;;;2.35;100.00;101083.86;1670398;84;21058;-84
2021/12/06 08:58:31;;;;;;;26.10;17.27;;;;;;;2.35;100.00;101083.86;1630014;86;21056;-85
2021/12/06 09:00:59;;;;;;;21.30;15.43;;;;;;;2.33;100.00;101090.78;1655810;86;21630;-83
2021/12/06 09:03:26;;;;;;;23.77;16.07;;;;;;;2.32;100.00;101072.38;1689347;84;21036;-83
2021/12/06 09:05:55;;;;;;;24.20;16.95;;;;;;;2.32;100.00;101072.38;1636296;86;21154;-84
2021/12/06 09:08:24;;;;;;;26.45;18.90;;;;;;;2.34;100.00;101070.61;1670550;84;21966;-83
2021/12/06 09:10:53;;;;;;;24.12;17.70;;;;;;;2.34;100.00;101057.30;1637306;85;21169;-83
2021/12/06 09:13:24;;;;;;;26.55;18.05;;;;;;;2.34;100.00;101057.30;1642544;86;21065;-82
2021/12/06 09:15:53;;;;;;;27.70;18.70;;;;;;;2.36;100.00;101054.24;1638814;86;28256;-83
2021/12/06 09:18:20;;;;;;;26.40;18.25;;;;;;;2.36;100.00;101054.24;1669551;85;21057;-82
2021/12/06 09:20:50;;;;;;;23.77;16.93;;;;;;;2.37;100.00;101058.92;1670149;85;21210;-83
2021/12/06 09:23:19;;;;;;;23.35;17.35;;;;;;;2.37;100.00;101065.34;1644996;85;21116;-83
2021/12/06 09:25:47;;;;;;;27.60;17.73;;;;;;;2.42;100.00;101071.20;1687489;85;21045;-82
2021/12/06 09:28:18;;;;;;;24.52;16.25;;;;;;;2.48;100.00;101073.55;1681007;85;21066;-85
2021/12/06 09:30:51;;;;;;;20.95;16.02;;;;;;;2.52;100.00;101060.97;1670797;84;21093;-84
2021/12/06 09:33:23;;;;;;;23.70;16.85;;;;;;;2.55;100.00;101065.20;1668818;84;21194;-84
2021/12/06 09:35:54;;;;;;;23.10;17.15;;;;;;;2.61;100.00;101070.55;1640008;85;21049;-84
2021/12/06 09:38:27;;;;;;;;;;;;;;;2.70;100.00;101063.80;1671674;84;21061;-83
2021/12/06 09:40:54;;;;;;;22.73;16.12;;;;;;;2.86;100.00;101067.98;1668403;85;20195;-85
2021/12/06 09:43:23;;;;;;;22.13;15.43;;;;;;;3.02;100.00;101061.81;1695841;84;21681;-83
2021/12/06 09:45:51;;;;;;;20.72;15.98;;;;;;;3.16;100.00;101062.14;1649994;84;22003;-83
2021/12/06 09:48:21;;;;;;;22.80;16.52;;;;;;;3.47;100.00;101061.02;1691423;84;21067;-83
2021/12/06 09:50:54;;;;;;;18.35;14.18;;;;;;;3.47;100.00;101061.02;1645436;85;21567;-84
2021/12/06 09:53:27;;;;;;;19.05;14.00;;;;;;;3.61;100.00;101057.89;1665202;84;21634;-82
2021/12/06 09:55:58;;;;;;;22.65;15.58;;;;;;;3.73;100.00;101047.55;1673367;84;21060;-85
2021/12/06 09:58:26;;;;;;;19.55;13.58;;;;;;;3.79;100.00;101051.20;1686726;84;21832;-82
2021/12/06 10:00:58;;;;;;;20.45;14.33;;;;;;;3.83;100.00;101060.93;1690781;84;21072;-83
2021/12/06 10:03:29;;;;;;;21.00;15.63;;;;;;;3.79;100.00;101052.91;1675392;84;21104;-83
2021/12/06 10:06:02;;;;;;;23.70;16.65;;;;;;;3.72;100.00;101052.77;1672402;84;21570;-83
2021/12/06 10:08:30;;;;;;;22.17;16.80;;;;;;;3.71;100.00;101050.66;1667346;85;21096;-83
2021/12/06 10:10:57;;;;;;;22.48;16.15;;;;;;;3.70;100.00;101054.13;1670397;85;21169;-84
2021/12/06 10:13:25;;;;;;;25.55;16.57;;;;;;;3.74;100.00;101053.09;1665509;85;21054;-85
2021/12/06 10:15:52;;;;;;;20.95;15.98;;;;;;;3.76;100.00;101056.46;1670082;85;21101;-83
2021/12/06 10:18:21;;;;;;;22.55;17.02;;;;;;;3.76;100.00;101053.05;1634179;86;21130;-83
2021/12/06 10:20:49;;;;;;;25.08;18.75;;;;;;;3.77;100.00;101061.15;1659738;86;21671;-82
2021/12/06 10:23:19;;;;;;;24.02;17.27;;;;;;;3.79;100.00;101048.62;1632602;86;21095;-82
2021/12/06 10:25:50;;;;;;;28.47;18.92;;;;;;;3.78;100.00;101046.08;1611095;86;21071;-82
2021/12/06 10:28:23;;;;;;;27.60;20.40;;;;;;;3.81;100.00;101042.55;1658837;85;21603;-82
2021/12/06 10:30:58;;;;;;;31.23;20.32;;;;;;;3.83;100.00;101035.16;1667440;85;21515;-84
2021/12/06 10:33:33;;;;;;;46.37;20.70;;;;;;;3.88;100.00;101037.09;1640068;84;21141;-86
2021/12/06 10:36:05;;;;;;;50.50;23.40;;;;;;;4.01;100.00;101033.58;1617227;87;21128;-85
2021/12/06 10:38:41;;;;;;;48.52;21.45;;;;;;;4.11;100.00;101031.45;1651847;84;21030;-86
2021/12/06 10:41:18;;;;;;;62.67;24.40;;;;;;;4.17;100.00;101030.36;1644242;86;21091;-86
2021/12/06 10:43:59;;;;;;;44.88;23.45;;;;;;;4.22;100.00;101033.14;1616427;87;21097;-86
2021/12/06 10:46:28;;;;;;;78.60;24.05;;;;;;;4.34;100.00;101036.94;1664481;85;21097;-86
2021/12/06 10:48:59;;;;;;;43.75;21.52;;;;;;;4.39;100.00;101041.44;1667144;84;21110;-85
2021/12/06 10:51:28;;;;;;;;;;;;;;;4.41;100.00;101033.63;1667654;85;21097;-86
2021/12/06 10:54:05;;;;;;;48.33;22.67;;;;;;;4.45;100.00;101042.11;1641114;86;20473;-85
2021/12/06 10:56:47;;;;;;;37.00;21.37;;;;;;;4.41;100.00;101040.94;1611524;88;21091;-86
2021/12/06 10:59:27;;;;;;;38.80;22.07;;;;;;;4.37;100.00;101032.92;1652745;85;21117;-85
2021/12/06 11:02:05;;;;;;;41.13;23.73;;;;;;;4.36;100.00;101031.28;1652042;85;21201;-86
2021/12/06 11:04:34;;;;;;;41.18;25.12;;;;;;;4.32;100.00;101032.30;1678087;83;21551;-85
2021/12/06 11:07:08;;;;;;;43.65;23.98;;;;;;;4.33;100.00;101023.66;1636138;87;21120;-86
2021/12/06 11:09:40;;;;;;;39.48;23.10;;;;;;;4.35;100.00;101015.85;1639256;85;21122;-85
2021/12/06 11:12:10;;;;;;;43.00;23.00;;;;;;;4.36;100.00;101014.52;1643107;86;21112;-85
2021/12/06 11:14:41;;;;;;;47.58;24.87;;;;;;;4.38;100.00;101012.69;1658664;85;21879;-86
2021/12/06 11:17:19;;;;;;;44.25;24.05;;;;;;;4.41;100.00;101015.15;1670991;84;21069;-86
2021/12/06 11:19:51;;;;;;;41.98;26.70;;;;;;;4.49;100.00;101013.98;1662751;85;21719;-88
2021/12/06 11:22:22;;;;;;;44.95;23.42;;;;;;;4.48;100.00;101018.75;1671898;85;21080;-87
2021/12/06 11:24:53;;;;;;;39.90;22.32;;;;;;;4.45;100.00;101021.48;1639895;86;21111;-85
2021/12/06 11:27:25;;;;;;;39.18;22.85;;;;;;;4.44;100.00;101005.61;1664487;85;21173;-86
2021/12/06 11:30:08;;;;;;;36.53;22.48;;;;;;;4.44;100.00;101006.44;1681336;84;21543;-85
2021/12/06 11:32:42;;;;;;;40.43;24.37;;;;;;;4.38;100.00;101004.95;1668212;85;21073;-87
2021/12/06 11:35:17;;;;;;;35.75;22.40;;;;;;;4.35;100.00;101004.25;1671793;85;21081;-87
2021/12/06 11:37:56;;;;;;;33.63;21.82;;;;;;;4.32;100.00;101003.94;1633869;84;21708;-87